Map

Track Data

SID SEASON NUMBER BASIN SUBBASIN NAME ISO_TIME NATURE LAT LON WMO_WIND WMO_PRES WMO_AGENCY TRACK_TYPE DIST2LAND LANDFALL IFLAG USA_AGENCY USA_ATCF_ID USA_LAT USA_LON USA_RECORD USA_STATUS USA_WIND USA_PRES USA_SSHS USA_R34_NE USA_R34_SE USA_R34_SW USA_R34_NW USA_R50_NE USA_R50_SE USA_R50_SW USA_R50_NW USA_R64_NE USA_R64_SE USA_R64_SW USA_R64_NW USA_POCI USA_ROCI USA_RMW USA_EYE TOKYO_LAT TOKYO_LON TOKYO_GRADE TOKYO_WIND TOKYO_PRES TOKYO_R50_DIR TOKYO_R50_LONG TOKYO_R50_SHORT TOKYO_R30_DIR TOKYO_R30_LONG TOKYO_R30_SHORT TOKYO_LAND CMA_LAT CMA_LON CMA_CAT CMA_WIND CMA_PRES HKO_LAT HKO_LON HKO_CAT HKO_WIND HKO_PRES NEWDELHI_LAT NEWDELHI_LON NEWDELHI_GRADE NEWDELHI_WIND NEWDELHI_PRES NEWDELHI_CI NEWDELHI_DP NEWDELHI_POCI REUNION_LAT REUNION_LON REUNION_TYPE REUNION_WIND REUNION_PRES REUNION_TNUM REUNION_CI REUNION_RMW REUNION_R34_NE REUNION_R34_SE REUNION_R34_SW REUNION_R34_NW REUNION_R50_NE REUNION_R50_SE REUNION_R50_SW REUNION_R50_NW REUNION_R64_NE REUNION_R64_SE REUNION_R64_SW REUNION_R64_NW BOM_LAT BOM_LON BOM_TYPE BOM_WIND BOM_PRES BOM_TNUM BOM_CI BOM_RMW BOM_R34_NE BOM_R34_SE BOM_R34_SW BOM_R34_NW BOM_R50_NE BOM_R50_SE BOM_R50_SW BOM_R50_NW BOM_R64_NE BOM_R64_SE BOM_R64_SW BOM_R64_NW BOM_ROCI BOM_POCI BOM_EYE BOM_POS_METHOD BOM_PRES_METHOD NADI_LAT NADI_LON NADI_CAT NADI_WIND NADI_PRES WELLINGTON_LAT WELLINGTON_LON WELLINGTON_WIND WELLINGTON_PRES DS824_LAT DS824_LON DS824_STAGE DS824_WIND DS824_PRES TD9636_LAT TD9636_LON TD9636_STAGE TD9636_WIND TD9636_PRES TD9635_LAT TD9635_LON TD9635_WIND TD9635_PRES TD9635_ROCI NEUMANN_LAT NEUMANN_LON NEUMANN_CLASS NEUMANN_WIND NEUMANN_PRES MLC_LAT MLC_LON MLC_CLASS MLC_WIND MLC_PRES USA_GUST BOM_GUST BOM_GUST_PER REUNION_GUST REUNION_GUST_PER USA_SEAHGT USA_SEARAD_NE USA_SEARAD_SE USA_SEARAD_SW USA_SEARAD_NW STORM_SPEED STORM_DIR
1922191N12125 1922 35 WP MM NOT_NAMED 1922-07-10 10:00:00 NR 11.6000 124.500 main 15 11 __________O___ -1 11.6000 124.500 2 3 286
1922191N12125 1922 35 WP MM NOT_NAMED 1922-07-10 12:00:00 NR 11.6239 124.413 main 11 10 __________P___ -1 11.6239 124.413 2 3 287
1922191N12125 1922 35 WP MM NOT_NAMED 1922-07-10 15:00:00 NR 11.6758 124.247 main 10 0 __________P___ -1 11.6758 124.247 2 4 289
1922191N12125 1922 35 WP MM NOT_NAMED 1922-07-10 18:00:00 NR 11.7691 123.988 main 0 0 __________P___ -1 11.7691 123.988 2 7 291
1922191N12125 1922 35 WP MM NOT_NAMED 1922-07-10 21:00:00 NR 11.9282 123.579 main 10 10 __________P___ -1 11.9282 123.579 2 9 292
1922191N12125 1922 35 WP MM NOT_NAMED 1922-07-10 22:00:00 NR 12.0000 123.400 main 15 0 __________O___ -1 12.0000 123.400 2 13 292
1922191N12125 1922 35 WP MM NOT_NAMED 1922-07-11 00:00:00 NR 12.1746 122.971 main 21 32 __________P___ -1 12.1746 122.971 2 15 293
1922191N12125 1922 35 WP MM NOT_NAMED 1922-07-11 03:00:00 NR 12.4990 122.195 main 66 0 __________P___ -1 12.4990 122.195 2 17 294
1922191N12125 1922 35 WP MM NOT_NAMED 1922-07-11 06:00:00 NR 12.8729 121.334 main 0 0 __________P___ -1 12.8729 121.334 2 19 295
1922191N12125 1922 35 WP MM NOT_NAMED 1922-07-11 09:00:00 NR 13.2681 120.473 main 0 0 __________P___ -1 13.2681 120.473 2 18 296
1922191N12125 1922 35 WP MM NOT_NAMED 1922-07-11 10:00:00 NR 13.4000 120.200 main 10 10 __________O___ -1 13.4000 120.200 2 17 297
1922191N12125 1922 35 WP MM NOT_NAMED 1922-07-11 12:00:00 NR 13.6438 119.714 main 68 73 __________P___ -1 13.6438 119.714 2 16 298
1922191N12125 1922 35 WP MM NOT_NAMED 1922-07-11 15:00:00 NR 14.0163 119.022 main 148 148 __________P___ -1 14.0163 119.022 2 15 300
1922191N12125 1922 35 WP MM NOT_NAMED 1922-07-11 18:00:00 NR 14.3940 118.378 main 188 196 __________P___ -1 14.3940 118.378 2 14 302
1922191N12125 1922 35 WP MM NOT_NAMED 1922-07-11 21:00:00 NR 14.7736 117.786 main 235 235 __________P___ -1 14.7736 117.786 2 14 304
1922191N12125 1922 35 WP MM NOT_NAMED 1922-07-11 22:00:00 NR 14.9000 117.600 main 253 253 __________O___ -1 14.9000 117.600 2 13 303
1922191N12125 1922 35 WP MM NOT_NAMED 1922-07-12 00:00:00 NR 15.1153 117.242 main 286 282 __________P___ -1 15.1153 117.242 2 12 303
1922191N12125 1922 35 WP MM NOT_NAMED 1922-07-12 03:00:00 NR 15.4379 116.750 main 317 326 __________P___ -1 15.4379 116.750 2 11 307
1922191N12125 1922 35 WP MM NOT_NAMED 1922-07-12 06:00:00 NR 15.7964 116.293 main 364 364 __________P___ -1 15.7964 116.293 2 12 312
1922191N12125 1922 35 WP MM NOT_NAMED 1922-07-12 09:00:00 NR 16.2312 115.849 main 417 418 __________P___ -1 16.2312 115.849 2 13 317
1922191N12125 1922 35 WP MM NOT_NAMED 1922-07-12 10:00:00 NR 16.4000 115.700 main 429 429 __________O___ -1 16.4000 115.700 3 15 321
1922191N12125 1922 35 WP MM NOT_NAMED 1922-07-12 12:00:00 NR 16.8320 115.351 main 467 458 __________P___ -1 16.8320 115.351 3 17 324
1922191N12125 1922 35 WP MM NOT_NAMED 1922-07-12 15:00:00 NR 17.5629 114.826 main 458 376 __________P___ -1 17.5629 114.826 3 18 327
1922191N12125 1922 35 WP MM NOT_NAMED 1922-07-12 18:00:00 NR 18.3152 114.334 main 376 311 __________P___ -1 18.3152 114.334 3 17 329
1922191N12125 1922 35 WP MM NOT_NAMED 1922-07-12 21:00:00 NR 19.0012 113.916 main 311 297 __________P___ -1 19.0012 113.916 3 15 330
1922191N12125 1922 35 WP MM NOT_NAMED 1922-07-12 22:00:00 NR 19.2000 113.800 main 297 272 __________O___ -1 19.2000 113.800 4 11 331
1922191N12125 1922 35 WP MM NOT_NAMED 1922-07-13 00:00:00 NR 19.4911 113.624 main 272 238 __________P___ -1 19.4911 113.624 4 9 332
1922191N12125 1922 35 WP MM NOT_NAMED 1922-07-13 03:00:00 NR 19.8336 113.443 main 238 203 __________P___ -1 19.8336 113.443 4 7 336
1922191N12125 1922 35 WP MM NOT_NAMED 1922-07-13 06:00:00 NR 20.1157 113.327 main 203 168 __________P___ -1 20.1157 113.327 4 6 341
1922191N12125 1922 35 WP MM NOT_NAMED 1922-07-13 09:00:00 NR 20.3965 113.233 main 168 157 __________P___ -1 20.3965 113.233 4 6 343
1922191N12125 1922 35 WP MM NOT_NAMED 1922-07-13 10:00:00 NR 20.5000 113.200 main 157 133 __________O___ -1 20.5000 113.200 4 7 343
1922191N12125 1922 35 WP MM NOT_NAMED 1922-07-13 12:00:00 NR 20.7311 113.123 main 133 88 __________P___ -1 20.7311 113.123 4 8 342
1922191N12125 1922 35 WP MM NOT_NAMED 1922-07-13 15:00:00 NR 21.1294 112.985 main 88 30 __________P___ -1 21.1294 112.985 4 9 342
1922191N12125 1922 35 WP MM NOT_NAMED 1922-07-13 18:00:00 NR 21.5727 112.828 main 30 0 __________P___ -1 21.5727 112.828 4 10 342
1922191N12125 1922 35 WP MM NOT_NAMED 1922-07-13 21:00:00 NR 22.0414 112.658 main 0 0 __________P___ -1 22.0414 112.658 4 10 342
1922191N12125 1922 35 WP MM NOT_NAMED 1922-07-13 22:00:00 NR 22.2000 112.600 main 0 __________O___ -1 22.2000 112.600 7 10 341

Digital Typhoon Data and Search

About IBTrACS Database

This database is a web-friendly format of International Best Track Archive for Climate Stewardship (IBTrACS), a global best track data archive curated by NOAA dating back to 1842.

Updated: 2021-10-21